sensor_id;sensor_type;location;lat;lon;timestamp;P1;durP1;ratioP1;P2;durP2;ratioP2
22378;SDS011;11357;49.990;7.370;2024-01-11T00:00:50;1999.90;;;999.90;;
22378;SDS011;11357;49.990;7.370;2024-01-11T00:03:16;1999.90;;;999.90;;
22378;SDS011;11357;49.990;7.370;2024-01-11T00:05:42;1999.90;;;999.90;;
22378;SDS011;11357;49.990;7.370;2024-01-11T00:08:07;1999.90;;;999.90;;
22378;SDS011;11357;49.990;7.370;2024-01-11T00:10:33;1999.90;;;999.90;;
22378;SDS011;11357;49.990;7.370;2024-01-11T00:12:59;1999.90;;;999.90;;
22378;SDS011;11357;49.990;7.370;2024-01-11T00:15:24;1999.90;;;999.90;;
22378;SDS011;11357;49.990;7.370;2024-01-11T00:17:50;1999.90;;;999.90;;
22378;SDS011;11357;49.990;7.370;2024-01-11T00:20:16;1999.90;;;999.90;;
22378;SDS011;11357;49.990;7.370;2024-01-11T00:22:41;1999.90;;;999.90;;
22378;SDS011;11357;49.990;7.370;2024-01-11T00:25:07;1999.90;;;999.90;;
22378;SDS011;11357;49.990;7.370;2024-01-11T00:27:33;971.73;;;533.83;;
22378;SDS011;11357;49.990;7.370;2024-01-11T00:29:59;1999.90;;;999.90;;
22378;SDS011;11357;49.990;7.370;2024-01-11T00:32:24;1999.90;;;999.90;;
22378;SDS011;11357;49.990;7.370;2024-01-11T00:34:50;1999.90;;;999.90;;
22378;SDS011;11357;49.990;7.370;2024-01-11T00:37:16;1999.90;;;999.90;;
22378;SDS011;11357;49.990;7.370;2024-01-11T00:39:41;1999.90;;;999.90;;
22378;SDS011;11357;49.990;7.370;2024-01-11T00:42:07;1999.90;;;999.90;;
22378;SDS011;11357;49.990;7.370;2024-01-11T00:44:33;1999.90;;;999.90;;
22378;SDS011;11357;49.990;7.370;2024-01-11T00:46:59;1050.07;;;586.10;;
22378;SDS011;11357;49.990;7.370;2024-01-11T00:49:24;988.33;;;559.07;;
22378;SDS011;11357;49.990;7.370;2024-01-11T00:51:50;996.33;;;559.17;;
22378;SDS011;11357;49.990;7.370;2024-01-11T00:54:15;1069.20;;;570.13;;
22378;SDS011;11357;49.990;7.370;2024-01-11T00:56:41;1030.30;;;598.17;;
22378;SDS011;11357;49.990;7.370;2024-01-11T00:59:07;440.13;;;348.43;;
22378;SDS011;11357;49.990;7.370;2024-01-11T01:01:32;1038.80;;;576.00;;
22378;SDS011;11357;49.990;7.370;2024-01-11T01:03:58;461.63;;;366.03;;
22378;SDS011;11357;49.990;7.370;2024-01-11T01:06:24;973.43;;;553.10;;
22378;SDS011;11357;49.990;7.370;2024-01-11T01:08:50;1044.53;;;584.43;;
22378;SDS011;11357;49.990;7.370;2024-01-11T01:11:15;977.13;;;566.73;;
22378;SDS011;11357;49.990;7.370;2024-01-11T01:13:41;1010.13;;;588.67;;
22378;SDS011;11357;49.990;7.370;2024-01-11T01:16:06;1011.57;;;566.23;;
22378;SDS011;11357;49.990;7.370;2024-01-11T01:18:32;566.87;;;367.20;;
22378;SDS011;11357;49.990;7.370;2024-01-11T01:20:58;457.10;;;343.77;;
22378;SDS011;11357;49.990;7.370;2024-01-11T01:23:23;1020.53;;;579.33;;
22378;SDS011;11357;49.990;7.370;2024-01-11T01:25:49;500.13;;;336.57;;
22378;SDS011;11357;49.990;7.370;2024-01-11T01:28:15;449.00;;;365.83;;
22378;SDS011;11357;49.990;7.370;2024-01-11T01:30:40;463.80;;;354.80;;
22378;SDS011;11357;49.990;7.370;2024-01-11T01:33:06;425.73;;;321.67;;
22378;SDS011;11357;49.990;7.370;2024-01-11T01:35:32;1050.53;;;577.13;;
22378;SDS011;11357;49.990;7.370;2024-01-11T01:37:59;396.57;;;309.03;;
22378;SDS011;11357;49.990;7.370;2024-01-11T01:40:25;426.43;;;323.57;;
22378;SDS011;11357;49.990;7.370;2024-01-11T01:42:57;328.53;;;290.57;;
22378;SDS011;11357;49.990;7.370;2024-01-11T01:45:24;397.27;;;312.03;;
22378;SDS011;11357;49.990;7.370;2024-01-11T01:47:50;472.37;;;333.63;;
22378;SDS011;11357;49.990;7.370;2024-01-11T01:50:16;526.73;;;372.10;;
22378;SDS011;11357;49.990;7.370;2024-01-11T01:52:43;477.13;;;340.37;;
22378;SDS011;11357;49.990;7.370;2024-01-11T01:55:09;1029.47;;;570.77;;
22378;SDS011;11357;49.990;7.370;2024-01-11T01:57:36;930.73;;;540.30;;
22378;SDS011;11357;49.990;7.370;2024-01-11T02:00:04;1031.23;;;572.37;;
22378;SDS011;11357;49.990;7.370;2024-01-11T02:02:30;440.23;;;334.47;;
22378;SDS011;11357;49.990;7.370;2024-01-11T02:04:59;1038.97;;;571.63;;
22378;SDS011;11357;49.990;7.370;2024-01-11T02:07:25;1016.23;;;585.17;;
22378;SDS011;11357;49.990;7.370;2024-01-11T02:09:51;1019.73;;;569.47;;
22378;SDS011;11357;49.990;7.370;2024-01-11T02:12:17;466.07;;;345.00;;
22378;SDS011;11357;49.990;7.370;2024-01-11T02:14:43;464.90;;;336.20;;
22378;SDS011;11357;49.990;7.370;2024-01-11T02:17:09;1042.00;;;577.90;;
22378;SDS011;11357;49.990;7.370;2024-01-11T02:19:35;423.97;;;343.33;;
22378;SDS011;11357;49.990;7.370;2024-01-11T02:22:02;1035.77;;;592.57;;
22378;SDS011;11357;49.990;7.370;2024-01-11T02:24:33;399.03;;;307.30;;
22378;SDS011;11357;49.990;7.370;2024-01-11T02:26:59;434.97;;;346.23;;
22378;SDS011;11357;49.990;7.370;2024-01-11T02:29:26;1033.77;;;562.63;;
22378;SDS011;11357;49.990;7.370;2024-01-11T02:31:52;451.53;;;338.63;;
22378;SDS011;11357;49.990;7.370;2024-01-11T02:34:25;412.97;;;327.00;;
22378;SDS011;11357;49.990;7.370;2024-01-11T02:36:53;406.87;;;299.87;;
22378;SDS011;11357;49.990;7.370;2024-01-11T02:39:19;961.50;;;552.50;;
22378;SDS011;11357;49.990;7.370;2024-01-11T02:41:47;988.67;;;564.13;;
22378;SDS011;11357;49.990;7.370;2024-01-11T02:44:14;1019.77;;;563.03;;
22378;SDS011;11357;49.990;7.370;2024-01-11T02:46:40;976.50;;;541.33;;
22378;SDS011;11357;49.990;7.370;2024-01-11T02:49:05;1999.90;;;999.90;;
22378;SDS011;11357;49.990;7.370;2024-01-11T02:51:31;1999.90;;;999.90;;
22378;SDS011;11357;49.990;7.370;2024-01-11T02:53:57;1999.90;;;999.90;;
22378;SDS011;11357;49.990;7.370;2024-01-11T02:56:23;1999.90;;;999.90;;
22378;SDS011;11357;49.990;7.370;2024-01-11T02:58:49;1019.63;;;570.93;;
22378;SDS011;11357;49.990;7.370;2024-01-11T03:01:15;1039.10;;;567.83;;
22378;SDS011;11357;49.990;7.370;2024-01-11T03:03:41;983.60;;;542.87;;
22378;SDS011;11357;49.990;7.370;2024-01-11T03:06:06;1074.37;;;595.87;;
22378;SDS011;11357;49.990;7.370;2024-01-11T03:08:32;1037.57;;;571.00;;
22378;SDS011;11357;49.990;7.370;2024-01-11T03:10:58;1022.20;;;578.87;;
22378;SDS011;11357;49.990;7.370;2024-01-11T03:13:24;1999.90;;;999.90;;
22378;SDS011;11357;49.990;7.370;2024-01-11T03:15:50;1999.90;;;999.90;;
22378;SDS011;11357;49.990;7.370;2024-01-11T03:18:15;985.00;;;549.03;;
22378;SDS011;11357;49.990;7.370;2024-01-11T03:20:41;1111.07;;;607.33;;
22378;SDS011;11357;49.990;7.370;2024-01-11T03:23:06;1063.80;;;583.73;;
22378;SDS011;11357;49.990;7.370;2024-01-11T03:25:32;1999.90;;;999.90;;
22378;SDS011;11357;49.990;7.370;2024-01-11T03:27:58;1999.90;;;999.90;;
22378;SDS011;11357;49.990;7.370;2024-01-11T03:30:24;1999.90;;;999.90;;
22378;SDS011;11357;49.990;7.370;2024-01-11T03:32:50;1999.90;;;999.90;;
22378;SDS011;11357;49.990;7.370;2024-01-11T03:35:15;1999.90;;;999.90;;
22378;SDS011;11357;49.990;7.370;2024-01-11T03:37:42;1151.67;;;616.67;;
22378;SDS011;11357;49.990;7.370;2024-01-11T03:40:08;1017.87;;;579.83;;
22378;SDS011;11357;49.990;7.370;2024-01-11T03:42:35;1061.10;;;614.53;;
22378;SDS011;11357;49.990;7.370;2024-01-11T03:45:01;558.80;;;346.77;;
22378;SDS011;11357;49.990;7.370;2024-01-11T03:47:28;1056.67;;;580.27;;
22378;SDS011;11357;49.990;7.370;2024-01-11T03:49:53;363.10;;;315.17;;
22378;SDS011;11357;49.990;7.370;2024-01-11T03:52:19;992.70;;;584.93;;
22378;SDS011;11357;49.990;7.370;2024-01-11T03:54:45;1020.97;;;569.20;;
22378;SDS011;11357;49.990;7.370;2024-01-11T03:57:11;537.50;;;360.73;;
22378;SDS011;11357;49.990;7.370;2024-01-11T03:59:36;1053.93;;;573.73;;
22378;SDS011;11357;49.990;7.370;2024-01-11T04:02:02;1045.23;;;554.50;;
22378;SDS011;11357;49.990;7.370;2024-01-11T04:04:28;446.67;;;325.00;;
22378;SDS011;11357;49.990;7.370;2024-01-11T04:06:53;1058.57;;;580.50;;
22378;SDS011;11357;49.990;7.370;2024-01-11T04:09:19;1109.10;;;581.47;;
22378;SDS011;11357;49.990;7.370;2024-01-11T04:11:45;1033.73;;;566.27;;
22378;SDS011;11357;49.990;7.370;2024-01-11T04:14:11;1125.80;;;590.83;;
22378;SDS011;11357;49.990;7.370;2024-01-11T04:16:43;1093.37;;;594.70;;
22378;SDS011;11357;49.990;7.370;2024-01-11T04:19:10;1095.33;;;587.43;;
22378;SDS011;11357;49.990;7.370;2024-01-11T04:21:36;631.70;;;401.50;;
22378;SDS011;11357;49.990;7.370;2024-01-11T04:24:05;431.73;;;334.73;;
22378;SDS011;11357;49.990;7.370;2024-01-11T04:26:31;523.60;;;372.00;;
22378;SDS011;11357;49.990;7.370;2024-01-11T04:28:57;339.03;;;286.23;;
22378;SDS011;11357;49.990;7.370;2024-01-11T04:31:24;421.23;;;326.00;;
22378;SDS011;11357;49.990;7.370;2024-01-11T04:33:50;983.87;;;552.77;;
22378;SDS011;11357;49.990;7.370;2024-01-11T04:36:16;636.80;;;350.17;;
22378;SDS011;11357;49.990;7.370;2024-01-11T04:38:42;535.13;;;363.27;;
22378;SDS011;11357;49.990;7.370;2024-01-11T04:41:09;1052.27;;;576.63;;
22378;SDS011;11357;49.990;7.370;2024-01-11T04:43:39;1049.17;;;598.80;;
22378;SDS011;11357;49.990;7.370;2024-01-11T04:46:18;1165.43;;;633.00;;
22378;SDS011;11357;49.990;7.370;2024-01-11T04:48:47;593.43;;;399.27;;
22378;SDS011;11357;49.990;7.370;2024-01-11T04:51:14;1205.00;;;629.00;;
22378;SDS011;11357;49.990;7.370;2024-01-11T04:53:40;1114.40;;;607.90;;
22378;SDS011;11357;49.990;7.370;2024-01-11T04:56:07;679.53;;;406.23;;
22378;SDS011;11357;49.990;7.370;2024-01-11T04:58:39;498.23;;;363.37;;
22378;SDS011;11357;49.990;7.370;2024-01-11T05:01:05;382.43;;;294.27;;
22378;SDS011;11357;49.990;7.370;2024-01-11T05:03:31;1078.27;;;595.73;;
22378;SDS011;11357;49.990;7.370;2024-01-11T05:05:58;718.73;;;433.60;;
22378;SDS011;11357;49.990;7.370;2024-01-11T05:08:25;1183.13;;;608.63;;
22378;SDS011;11357;49.990;7.370;2024-01-11T05:10:51;1122.50;;;601.63;;
22378;SDS011;11357;49.990;7.370;2024-01-11T05:13:17;1163.17;;;623.47;;
22378;SDS011;11357;49.990;7.370;2024-01-11T05:15:43;1084.47;;;595.37;;
22378;SDS011;11357;49.990;7.370;2024-01-11T05:18:09;614.37;;;411.90;;
22378;SDS011;11357;49.990;7.370;2024-01-11T05:20:35;1090.73;;;595.40;;
22378;SDS011;11357;49.990;7.370;2024-01-11T05:23:01;564.80;;;383.20;;
22378;SDS011;11357;49.990;7.370;2024-01-11T05:25:27;513.70;;;367.53;;
22378;SDS011;11357;49.990;7.370;2024-01-11T05:27:52;540.70;;;379.83;;
22378;SDS011;11357;49.990;7.370;2024-01-11T05:30:18;582.20;;;401.83;;
22378;SDS011;11357;49.990;7.370;2024-01-11T05:32:44;511.10;;;354.90;;
22378;SDS011;11357;49.990;7.370;2024-01-11T05:35:09;633.77;;;357.63;;
22378;SDS011;11357;49.990;7.370;2024-01-11T05:37:35;571.30;;;348.00;;
22378;SDS011;11357;49.990;7.370;2024-01-11T05:40:01;930.43;;;537.23;;
22378;SDS011;11357;49.990;7.370;2024-01-11T05:42:28;1175.90;;;614.80;;
22378;SDS011;11357;49.990;7.370;2024-01-11T05:44:53;531.73;;;368.97;;
22378;SDS011;11357;49.990;7.370;2024-01-11T05:47:19;736.80;;;395.60;;
22378;SDS011;11357;49.990;7.370;2024-01-11T05:49:45;491.40;;;271.67;;
22378;SDS011;11357;49.990;7.370;2024-01-11T05:52:11;502.07;;;338.60;;
22378;SDS011;11357;49.990;7.370;2024-01-11T05:54:36;383.57;;;315.37;;
22378;SDS011;11357;49.990;7.370;2024-01-11T05:57:02;602.53;;;377.33;;
22378;SDS011;11357;49.990;7.370;2024-01-11T05:59:28;1037.67;;;563.87;;
22378;SDS011;11357;49.990;7.370;2024-01-11T06:01:53;1080.27;;;610.77;;
22378;SDS011;11357;49.990;7.370;2024-01-11T06:04:19;1145.40;;;581.60;;
22378;SDS011;11357;49.990;7.370;2024-01-11T06:06:45;1160.20;;;623.37;;
22378;SDS011;11357;49.990;7.370;2024-01-11T06:09:10;1097.73;;;598.17;;
22378;SDS011;11357;49.990;7.370;2024-01-11T06:11:36;502.47;;;333.00;;
22378;SDS011;11357;49.990;7.370;2024-01-11T06:14:02;635.37;;;401.20;;
22378;SDS011;11357;49.990;7.370;2024-01-11T06:16:28;541.37;;;366.33;;
22378;SDS011;11357;49.990;7.370;2024-01-11T06:26:49;462.30;;;382.80;;
22378;SDS011;11357;49.990;7.370;2024-01-11T06:29:14;313.17;;;271.17;;
22378;SDS011;11357;49.990;7.370;2024-01-11T06:31:40;309.13;;;268.37;;
22378;SDS011;11357;49.990;7.370;2024-01-11T06:34:06;290.17;;;262.43;;
22378;SDS011;11357;49.990;7.370;2024-01-11T06:36:31;340.93;;;278.40;;
22378;SDS011;11357;49.990;7.370;2024-01-11T06:38:57;429.53;;;328.87;;
22378;SDS011;11357;49.990;7.370;2024-01-11T06:41:23;374.63;;;340.17;;
22378;SDS011;11357;49.990;7.370;2024-01-11T06:43:49;277.70;;;213.03;;
22378;SDS011;11357;49.990;7.370;2024-01-11T06:46:19;973.40;;;490.27;;
22378;SDS011;11357;49.990;7.370;2024-01-11T06:51:21;191.67;;;134.00;;
22378;SDS011;11357;49.990;7.370;2024-01-11T06:53:47;133.80;;;83.27;;
22378;SDS011;11357;49.990;7.370;2024-01-11T06:56:17;745.20;;;375.00;;
22378;SDS011;11357;49.990;7.370;2024-01-11T06:59:00;297.03;;;216.57;;
22378;SDS011;11357;49.990;7.370;2024-01-11T07:02:10;703.00;;;428.17;;
22378;SDS011;11357;49.990;7.370;2024-01-11T07:04:45;287.63;;;228.10;;
22378;SDS011;11357;49.990;7.370;2024-01-11T07:07:11;943.27;;;530.27;;
22378;SDS011;11357;49.990;7.370;2024-01-11T07:09:36;526.13;;;445.10;;
22378;SDS011;11357;49.990;7.370;2024-01-11T07:12:02;631.53;;;418.00;;
22378;SDS011;11357;49.990;7.370;2024-01-11T07:14:28;1209.57;;;662.80;;
22378;SDS011;11357;49.990;7.370;2024-01-11T07:16:55;220.87;;;182.77;;
22378;SDS011;11357;49.990;7.370;2024-01-11T07:19:20;438.50;;;398.83;;
22378;SDS011;11357;49.990;7.370;2024-01-11T07:21:47;790.23;;;430.90;;
22378;SDS011;11357;49.990;7.370;2024-01-11T07:24:12;216.33;;;198.13;;
22378;SDS011;11357;49.990;7.370;2024-01-11T07:26:38;358.60;;;324.60;;
22378;SDS011;11357;49.990;7.370;2024-01-11T07:29:04;570.17;;;437.10;;
22378;SDS011;11357;49.990;7.370;2024-01-11T07:31:29;845.73;;;494.67;;
22378;SDS011;11357;49.990;7.370;2024-01-11T07:33:55;472.87;;;333.80;;
22378;SDS011;11357;49.990;7.370;2024-01-11T07:36:21;165.70;;;146.37;;
22378;SDS011;11357;49.990;7.370;2024-01-11T07:38:46;145.63;;;133.90;;
22378;SDS011;11357;49.990;7.370;2024-01-11T07:41:12;211.27;;;194.73;;
22378;SDS011;11357;49.990;7.370;2024-01-11T07:43:38;288.07;;;263.73;;
22378;SDS011;11357;49.990;7.370;2024-01-11T07:46:04;379.73;;;337.93;;
22378;SDS011;11357;49.990;7.370;2024-01-11T07:48:32;118.37;;;109.03;;
22378;SDS011;11357;49.990;7.370;2024-01-11T07:50:58;254.70;;;214.27;;
22378;SDS011;11357;49.990;7.370;2024-01-11T07:53:24;218.80;;;202.07;;
22378;SDS011;11357;49.990;7.370;2024-01-11T07:55:51;317.33;;;290.57;;
22378;SDS011;11357;49.990;7.370;2024-01-11T07:58:17;204.10;;;188.17;;
22378;SDS011;11357;49.990;7.370;2024-01-11T08:00:43;137.90;;;127.90;;
22378;SDS011;11357;49.990;7.370;2024-01-11T08:03:10;69.57;;;63.10;;
22378;SDS011;11357;49.990;7.370;2024-01-11T08:05:35;35.70;;;20.90;;
22378;SDS011;11357;49.990;7.370;2024-01-11T08:08:01;480.00;;;257.97;;
22378;SDS011;11357;49.990;7.370;2024-01-11T08:10:28;53.80;;;48.53;;
22378;SDS011;11357;49.990;7.370;2024-01-11T08:12:55;42.67;;;23.87;;
22378;SDS011;11357;49.990;7.370;2024-01-11T08:15:21;37.83;;;22.10;;
22378;SDS011;11357;49.990;7.370;2024-01-11T08:17:47;43.13;;;24.27;;
22378;SDS011;11357;49.990;7.370;2024-01-11T08:20:13;41.93;;;25.57;;
22378;SDS011;11357;49.990;7.370;2024-01-11T08:22:39;44.80;;;36.67;;
22378;SDS011;11357;49.990;7.370;2024-01-11T08:25:08;36.47;;;22.37;;
22378;SDS011;11357;49.990;7.370;2024-01-11T08:27:34;41.30;;;26.47;;
22378;SDS011;11357;49.990;7.370;2024-01-11T08:30:01;39.03;;;21.93;;
22378;SDS011;11357;49.990;7.370;2024-01-11T08:32:27;31.60;;;20.23;;
22378;SDS011;11357;49.990;7.370;2024-01-11T08:34:53;35.20;;;22.77;;
22378;SDS011;11357;49.990;7.370;2024-01-11T08:37:19;39.63;;;26.87;;
22378;SDS011;11357;49.990;7.370;2024-01-11T08:39:45;39.40;;;23.17;;
22378;SDS011;11357;49.990;7.370;2024-01-11T08:42:11;37.83;;;19.50;;
22378;SDS011;11357;49.990;7.370;2024-01-11T08:44:41;40.63;;;20.87;;
22378;SDS011;11357;49.990;7.370;2024-01-11T08:47:07;36.60;;;17.60;;
22378;SDS011;11357;49.990;7.370;2024-01-11T08:49:35;38.23;;;20.40;;
22378;SDS011;11357;49.990;7.370;2024-01-11T08:52:04;36.80;;;17.97;;
22378;SDS011;11357;49.990;7.370;2024-01-11T08:54:30;36.17;;;18.37;;
22378;SDS011;11357;49.990;7.370;2024-01-11T08:56:58;36.63;;;18.37;;
22378;SDS011;11357;49.990;7.370;2024-01-11T08:59:24;35.70;;;17.67;;
22378;SDS011;11357;49.990;7.370;2024-01-11T09:01:51;38.93;;;19.17;;
22378;SDS011;11357;49.990;7.370;2024-01-11T09:04:16;38.33;;;18.47;;
22378;SDS011;11357;49.990;7.370;2024-01-11T09:06:42;40.53;;;18.27;;
22378;SDS011;11357;49.990;7.370;2024-01-11T09:09:08;36.80;;;19.30;;
22378;SDS011;11357;49.990;7.370;2024-01-11T09:11:35;36.17;;;18.37;;
22378;SDS011;11357;49.990;7.370;2024-01-11T09:14:01;35.83;;;17.73;;
22378;SDS011;11357;49.990;7.370;2024-01-11T09:16:30;30.97;;;17.03;;
22378;SDS011;11357;49.990;7.370;2024-01-11T09:18:55;33.43;;;17.63;;
22378;SDS011;11357;49.990;7.370;2024-01-11T09:21:21;38.73;;;18.17;;
22378;SDS011;11357;49.990;7.370;2024-01-11T09:23:47;39.33;;;18.13;;
22378;SDS011;11357;49.990;7.370;2024-01-11T09:26:13;34.90;;;16.90;;
22378;SDS011;11357;49.990;7.370;2024-01-11T09:28:38;31.83;;;15.93;;
22378;SDS011;11357;49.990;7.370;2024-01-11T09:31:04;32.70;;;18.37;;
22378;SDS011;11357;49.990;7.370;2024-01-11T09:33:30;33.17;;;16.93;;
22378;SDS011;11357;49.990;7.370;2024-01-11T09:35:55;33.87;;;18.63;;
22378;SDS011;11357;49.990;7.370;2024-01-11T09:38:21;36.63;;;17.40;;
22378;SDS011;11357;49.990;7.370;2024-01-11T09:40:49;31.80;;;16.93;;
22378;SDS011;11357;49.990;7.370;2024-01-11T09:43:29;35.10;;;15.73;;
22378;SDS011;11357;49.990;7.370;2024-01-11T09:45:56;31.93;;;16.90;;
22378;SDS011;11357;49.990;7.370;2024-01-11T09:50:58;28.47;;;16.63;;
22378;SDS011;11357;49.990;7.370;2024-01-11T09:53:25;32.27;;;16.90;;
22378;SDS011;11357;49.990;7.370;2024-01-11T09:55:53;37.40;;;16.13;;
22378;SDS011;11357;49.990;7.370;2024-01-11T09:58:20;34.27;;;17.20;;
22378;SDS011;11357;49.990;7.370;2024-01-11T10:00:47;34.57;;;16.13;;
22378;SDS011;11357;49.990;7.370;2024-01-11T10:03:19;28.87;;;15.23;;
22378;SDS011;11357;49.990;7.370;2024-01-11T10:05:45;30.47;;;14.83;;
22378;SDS011;11357;49.990;7.370;2024-01-11T10:08:14;33.27;;;15.60;;
22378;SDS011;11357;49.990;7.370;2024-01-11T10:10:40;33.23;;;16.53;;
22378;SDS011;11357;49.990;7.370;2024-01-11T10:13:06;32.87;;;16.03;;
22378;SDS011;11357;49.990;7.370;2024-01-11T10:15:31;31.43;;;16.40;;
22378;SDS011;11357;49.990;7.370;2024-01-11T10:17:57;32.37;;;16.00;;
22378;SDS011;11357;49.990;7.370;2024-01-11T10:20:23;30.00;;;16.60;;
22378;SDS011;11357;49.990;7.370;2024-01-11T10:22:49;30.60;;;16.93;;
22378;SDS011;11357;49.990;7.370;2024-01-11T10:25:17;32.37;;;16.63;;
22378;SDS011;11357;49.990;7.370;2024-01-11T10:27:44;31.13;;;16.10;;
22378;SDS011;11357;49.990;7.370;2024-01-11T10:30:11;38.90;;;17.47;;
22378;SDS011;11357;49.990;7.370;2024-01-11T10:32:45;29.27;;;15.77;;
22378;SDS011;11357;49.990;7.370;2024-01-11T10:35:12;34.27;;;17.07;;
22378;SDS011;11357;49.990;7.370;2024-01-11T10:37:38;35.83;;;18.37;;
22378;SDS011;11357;49.990;7.370;2024-01-11T10:40:05;44.77;;;33.03;;
22378;SDS011;11357;49.990;7.370;2024-01-11T10:42:35;95.80;;;76.17;;
22378;SDS011;11357;49.990;7.370;2024-01-11T10:45:15;33.77;;;17.63;;
22378;SDS011;11357;49.990;7.370;2024-01-11T10:47:46;34.33;;;18.97;;
22378;SDS011;11357;49.990;7.370;2024-01-11T10:50:18;51.00;;;43.23;;
22378;SDS011;11357;49.990;7.370;2024-01-11T10:53:03;43.33;;;32.10;;
22378;SDS011;11357;49.990;7.370;2024-01-11T10:55:50;43.10;;;22.80;;
22378;SDS011;11357;49.990;7.370;2024-01-11T10:58:16;131.53;;;120.33;;
22378;SDS011;11357;49.990;7.370;2024-01-11T11:00:44;40.00;;;19.90;;
22378;SDS011;11357;49.990;7.370;2024-01-11T11:03:11;33.77;;;19.73;;
22378;SDS011;11357;49.990;7.370;2024-01-11T11:05:37;34.50;;;19.47;;
22378;SDS011;11357;49.990;7.370;2024-01-11T11:08:04;35.43;;;17.20;;
22378;SDS011;11357;49.990;7.370;2024-01-11T11:10:33;31.20;;;16.13;;
22378;SDS011;11357;49.990;7.370;2024-01-11T11:12:59;32.60;;;17.67;;
22378;SDS011;11357;49.990;7.370;2024-01-11T11:15:28;27.70;;;15.00;;
22378;SDS011;11357;49.990;7.370;2024-01-11T11:17:54;30.17;;;15.50;;
22378;SDS011;11357;49.990;7.370;2024-01-11T11:20:21;26.83;;;14.80;;
22378;SDS011;11357;49.990;7.370;2024-01-11T11:23:06;28.20;;;14.83;;
22378;SDS011;11357;49.990;7.370;2024-01-11T11:25:32;167.90;;;153.43;;
22378;SDS011;11357;49.990;7.370;2024-01-11T11:27:59;28.53;;;14.17;;
22378;SDS011;11357;49.990;7.370;2024-01-11T11:30:29;29.00;;;14.43;;
22378;SDS011;11357;49.990;7.370;2024-01-11T11:32:58;29.30;;;13.93;;
22378;SDS011;11357;49.990;7.370;2024-01-11T11:35:32;24.90;;;13.30;;
22378;SDS011;11357;49.990;7.370;2024-01-11T11:37:57;26.83;;;14.43;;
22378;SDS011;11357;49.990;7.370;2024-01-11T11:40:33;24.73;;;12.67;;
22378;SDS011;11357;49.990;7.370;2024-01-11T11:43:05;26.27;;;11.37;;
22378;SDS011;11357;49.990;7.370;2024-01-11T11:45:31;23.33;;;11.50;;
22378;SDS011;11357;49.990;7.370;2024-01-11T11:47:57;28.50;;;14.73;;
22378;SDS011;11357;49.990;7.370;2024-01-11T11:50:23;27.00;;;13.77;;
22378;SDS011;11357;49.990;7.370;2024-01-11T11:52:53;26.87;;;14.53;;
22378;SDS011;11357;49.990;7.370;2024-01-11T11:55:23;26.87;;;14.57;;
22378;SDS011;11357;49.990;7.370;2024-01-11T11:57:53;30.43;;;14.87;;
22378;SDS011;11357;49.990;7.370;2024-01-11T12:00:22;29.53;;;14.60;;
22378;SDS011;11357;49.990;7.370;2024-01-11T12:02:48;26.57;;;14.33;;
22378;SDS011;11357;49.990;7.370;2024-01-11T12:05:16;24.37;;;13.70;;
22378;SDS011;11357;49.990;7.370;2024-01-11T12:07:43;33.43;;;15.40;;
22378;SDS011;11357;49.990;7.370;2024-01-11T12:10:10;36.50;;;20.60;;
22378;SDS011;11357;49.990;7.370;2024-01-11T12:12:37;31.23;;;19.93;;
22378;SDS011;11357;49.990;7.370;2024-01-11T12:15:04;31.13;;;17.60;;
22378;SDS011;11357;49.990;7.370;2024-01-11T12:17:30;33.90;;;17.93;;
22378;SDS011;11357;49.990;7.370;2024-01-11T12:19:56;35.03;;;19.40;;
22378;SDS011;11357;49.990;7.370;2024-01-11T12:22:21;39.20;;;19.77;;
22378;SDS011;11357;49.990;7.370;2024-01-11T12:24:48;33.47;;;17.97;;
22378;SDS011;11357;49.990;7.370;2024-01-11T12:27:14;39.17;;;19.90;;
22378;SDS011;11357;49.990;7.370;2024-01-11T12:29:40;35.13;;;19.53;;
22378;SDS011;11357;49.990;7.370;2024-01-11T12:32:06;38.67;;;19.90;;
22378;SDS011;11357;49.990;7.370;2024-01-11T12:34:32;39.17;;;19.67;;
22378;SDS011;11357;49.990;7.370;2024-01-11T12:36:58;42.50;;;19.70;;
22378;SDS011;11357;49.990;7.370;2024-01-11T12:39:26;40.10;;;19.37;;
22378;SDS011;11357;49.990;7.370;2024-01-11T12:41:53;36.70;;;19.40;;
22378;SDS011;11357;49.990;7.370;2024-01-11T12:44:21;36.50;;;18.70;;
22378;SDS011;11357;49.990;7.370;2024-01-11T12:46:47;35.97;;;19.00;;
22378;SDS011;11357;49.990;7.370;2024-01-11T12:49:14;33.70;;;18.90;;
22378;SDS011;11357;49.990;7.370;2024-01-11T12:51:40;33.00;;;16.23;;
22378;SDS011;11357;49.990;7.370;2024-01-11T12:54:10;32.80;;;16.37;;
22378;SDS011;11357;49.990;7.370;2024-01-11T12:56:40;33.03;;;18.47;;
22378;SDS011;11357;49.990;7.370;2024-01-11T12:59:07;34.77;;;19.87;;
22378;SDS011;11357;49.990;7.370;2024-01-11T13:01:35;29.73;;;15.80;;
22378;SDS011;11357;49.990;7.370;2024-01-11T13:04:01;32.00;;;17.57;;
22378;SDS011;11357;49.990;7.370;2024-01-11T13:06:28;28.63;;;14.63;;
22378;SDS011;11357;49.990;7.370;2024-01-11T13:08:56;29.00;;;16.23;;
22378;SDS011;11357;49.990;7.370;2024-01-11T13:11:22;28.93;;;17.07;;
22378;SDS011;11357;49.990;7.370;2024-01-11T13:13:49;29.87;;;14.97;;
22378;SDS011;11357;49.990;7.370;2024-01-11T13:16:16;27.00;;;13.23;;
22378;SDS011;11357;49.990;7.370;2024-01-11T13:18:45;35.10;;;16.10;;
22378;SDS011;11357;49.990;7.370;2024-01-11T13:21:11;36.47;;;18.03;;
22378;SDS011;11357;49.990;7.370;2024-01-11T13:23:40;34.67;;;16.73;;
22378;SDS011;11357;49.990;7.370;2024-01-11T13:26:06;36.70;;;17.73;;
22378;SDS011;11357;49.990;7.370;2024-01-11T13:28:35;31.37;;;16.50;;
22378;SDS011;11357;49.990;7.370;2024-01-11T13:31:01;31.47;;;17.00;;
22378;SDS011;11357;49.990;7.370;2024-01-11T13:33:27;29.27;;;15.53;;
22378;SDS011;11357;49.990;7.370;2024-01-11T13:35:55;29.60;;;17.00;;
22378;SDS011;11357;49.990;7.370;2024-01-11T13:38:21;31.37;;;17.33;;
22378;SDS011;11357;49.990;7.370;2024-01-11T13:40:47;31.37;;;15.93;;
22378;SDS011;11357;49.990;7.370;2024-01-11T13:43:13;30.43;;;16.47;;
22378;SDS011;11357;49.990;7.370;2024-01-11T13:45:38;29.97;;;17.00;;
22378;SDS011;11357;49.990;7.370;2024-01-11T13:48:04;32.57;;;16.40;;
22378;SDS011;11357;49.990;7.370;2024-01-11T13:50:31;33.40;;;17.33;;
22378;SDS011;11357;49.990;7.370;2024-01-11T13:52:57;33.27;;;16.73;;
22378;SDS011;11357;49.990;7.370;2024-01-11T13:55:23;29.80;;;15.93;;
22378;SDS011;11357;49.990;7.370;2024-01-11T13:57:50;30.43;;;15.03;;
22378;SDS011;11357;49.990;7.370;2024-01-11T14:00:17;29.43;;;16.93;;
22378;SDS011;11357;49.990;7.370;2024-01-11T14:02:44;32.67;;;16.00;;
22378;SDS011;11357;49.990;7.370;2024-01-11T14:05:10;34.57;;;16.50;;
22378;SDS011;11357;49.990;7.370;2024-01-11T14:07:41;26.73;;;15.07;;
22378;SDS011;11357;49.990;7.370;2024-01-11T14:10:09;30.57;;;14.47;;
22378;SDS011;11357;49.990;7.370;2024-01-11T14:12:36;31.23;;;16.33;;
22378;SDS011;11357;49.990;7.370;2024-01-11T14:15:03;27.87;;;15.80;;